sensor_id;sensor_type;location;lat;lon;timestamp;temperature;humidity
19060;DHT22;9663;48.996;8.334;2023-05-19T00:01:46;14.00;35.30
19060;DHT22;9663;48.996;8.334;2023-05-19T00:04:15;14.30;35.50
19060;DHT22;9663;48.996;8.334;2023-05-19T00:06:41;14.30;35.50
19060;DHT22;9663;48.996;8.334;2023-05-19T00:09:09;14.20;35.60
19060;DHT22;9663;48.996;8.334;2023-05-19T00:11:38;14.40;35.80
19060;DHT22;9663;48.996;8.334;2023-05-19T00:14:08;14.10;35.90
19060;DHT22;9663;48.996;8.334;2023-05-19T00:16:35;14.10;36.20
19060;DHT22;9663;48.996;8.334;2023-05-19T00:19:05;14.20;36.00
19060;DHT22;9663;48.996;8.334;2023-05-19T00:21:34;14.10;36.10
19060;DHT22;9663;48.996;8.334;2023-05-19T00:24:02;14.00;36.10
19060;DHT22;9663;48.996;8.334;2023-05-19T00:26:28;13.10;35.70
19060;DHT22;9663;48.996;8.334;2023-05-19T00:28:54;14.10;36.30
19060;DHT22;9663;48.996;8.334;2023-05-19T00:31:20;14.00;36.40
19060;DHT22;9663;48.996;8.334;2023-05-19T00:33:46;14.00;36.50
19060;DHT22;9663;48.996;8.334;2023-05-19T00:36:11;13.90;36.60
19060;DHT22;9663;48.996;8.334;2023-05-19T00:38:37;14.00;36.70
19060;DHT22;9663;48.996;8.334;2023-05-19T00:41:04;13.90;36.70
19060;DHT22;9663;48.996;8.334;2023-05-19T00:43:31;13.90;36.80
19060;DHT22;9663;48.996;8.334;2023-05-19T00:46:00;13.90;36.80
19060;DHT22;9663;48.996;8.334;2023-05-19T00:48:26;13.90;36.90
19060;DHT22;9663;48.996;8.334;2023-05-19T00:50:54;13.90;37.00
19060;DHT22;9663;48.996;8.334;2023-05-19T00:53:26;13.40;36.80
19060;DHT22;9663;48.996;8.334;2023-05-19T00:55:53;13.80;37.10
19060;DHT22;9663;48.996;8.334;2023-05-19T00:58:19;13.80;37.10
19060;DHT22;9663;48.996;8.334;2023-05-19T01:00:45;13.80;37.10
19060;DHT22;9663;48.996;8.334;2023-05-19T01:03:11;13.80;37.20
19060;DHT22;9663;48.996;8.334;2023-05-19T01:05:40;13.80;37.30
19060;DHT22;9663;48.996;8.334;2023-05-19T01:08:09;13.20;37.40
19060;DHT22;9663;48.996;8.334;2023-05-19T01:10:35;13.50;37.30
19060;DHT22;9663;48.996;8.334;2023-05-19T01:13:02;13.80;38.20
19060;DHT22;9663;48.996;8.334;2023-05-19T01:15:36;13.70;37.60
19060;DHT22;9663;48.996;8.334;2023-05-19T01:18:21;13.70;38.20
19060;DHT22;9663;48.996;8.334;2023-05-19T01:24:03;13.60;38.50
19060;DHT22;9663;48.996;8.334;2023-05-19T01:26:36;13.60;38.40
19060;DHT22;9663;48.996;8.334;2023-05-19T01:29:41;12.80;37.30
19060;DHT22;9663;48.996;8.334;2023-05-19T01:32:33;13.50;37.90
19060;DHT22;9663;48.996;8.334;2023-05-19T01:35:02;13.50;37.80
19060;DHT22;9663;48.996;8.334;2023-05-19T01:37:30;13.50;38.10
19060;DHT22;9663;48.996;8.334;2023-05-19T01:39:56;13.60;38.10
19060;DHT22;9663;48.996;8.334;2023-05-19T01:42:22;13.50;38.10
19060;DHT22;9663;48.996;8.334;2023-05-19T01:44:50;13.50;38.20
19060;DHT22;9663;48.996;8.334;2023-05-19T01:47:18;13.50;38.20
19060;DHT22;9663;48.996;8.334;2023-05-19T01:49:44;13.50;38.30
19060;DHT22;9663;48.996;8.334;2023-05-19T01:52:09;13.50;38.40
19060;DHT22;9663;48.996;8.334;2023-05-19T01:54:35;13.50;38.50
19060;DHT22;9663;48.996;8.334;2023-05-19T01:57:23;13.50;38.70
19060;DHT22;9663;48.996;8.334;2023-05-19T02:08:38;13.50;39.80
19060;DHT22;9663;48.996;8.334;2023-05-19T02:11:24;13.40;38.80
19060;DHT22;9663;48.996;8.334;2023-05-19T02:13:56;13.40;39.10
19060;DHT22;9663;48.996;8.334;2023-05-19T02:16:27;13.40;38.80
19060;DHT22;9663;48.996;8.334;2023-05-19T02:18:54;13.40;39.00
19060;DHT22;9663;48.996;8.334;2023-05-19T02:21:20;13.80;39.10
19060;DHT22;9663;48.996;8.334;2023-05-19T02:23:47;14.40;39.40
19060;DHT22;9663;48.996;8.334;2023-05-19T02:26:13;13.30;39.10
19060;DHT22;9663;48.996;8.334;2023-05-19T02:28:38;13.50;39.20
19060;DHT22;9663;48.996;8.334;2023-05-19T02:31:04;13.40;39.20
19060;DHT22;9663;48.996;8.334;2023-05-19T02:33:33;13.40;39.20
19060;DHT22;9663;48.996;8.334;2023-05-19T02:35:59;13.40;39.30
19060;DHT22;9663;48.996;8.334;2023-05-19T02:38:25;13.40;39.40
19060;DHT22;9663;48.996;8.334;2023-05-19T02:40:51;13.40;39.50
19060;DHT22;9663;48.996;8.334;2023-05-19T02:43:18;13.30;39.50
19060;DHT22;9663;48.996;8.334;2023-05-19T02:45:44;13.30;39.60
19060;DHT22;9663;48.996;8.334;2023-05-19T02:48:10;13.30;39.60
19060;DHT22;9663;48.996;8.334;2023-05-19T02:50:35;13.30;39.70
19060;DHT22;9663;48.996;8.334;2023-05-19T02:53:02;13.30;39.80
19060;DHT22;9663;48.996;8.334;2023-05-19T02:55:28;13.30;40.00
19060;DHT22;9663;48.996;8.334;2023-05-19T02:57:54;13.20;40.00
19060;DHT22;9663;48.996;8.334;2023-05-19T03:00:20;13.20;40.20
19060;DHT22;9663;48.996;8.334;2023-05-19T03:02:45;13.20;40.10
19060;DHT22;9663;48.996;8.334;2023-05-19T03:05:11;13.10;40.20
19060;DHT22;9663;48.996;8.334;2023-05-19T03:07:38;13.10;40.30
19060;DHT22;9663;48.996;8.334;2023-05-19T03:10:04;13.20;40.40
19060;DHT22;9663;48.996;8.334;2023-05-19T03:12:31;13.10;40.40
19060;DHT22;9663;48.996;8.334;2023-05-19T03:14:58;13.10;40.50
19060;DHT22;9663;48.996;8.334;2023-05-19T03:17:24;13.80;41.10
19060;DHT22;9663;48.996;8.334;2023-05-19T03:19:50;13.10;40.80
19060;DHT22;9663;48.996;8.334;2023-05-19T03:22:16;13.10;41.20
19060;DHT22;9663;48.996;8.334;2023-05-19T03:24:45;14.00;41.40
19060;DHT22;9663;48.996;8.334;2023-05-19T03:27:11;13.40;41.30
19060;DHT22;9663;48.996;8.334;2023-05-19T03:29:37;12.90;40.90
19060;DHT22;9663;48.996;8.334;2023-05-19T03:32:04;13.40;41.30
19060;DHT22;9663;48.996;8.334;2023-05-19T03:34:30;13.50;41.30
19060;DHT22;9663;48.996;8.334;2023-05-19T03:36:56;13.00;41.80
19060;DHT22;9663;48.996;8.334;2023-05-19T03:39:22;12.90;41.20
19060;DHT22;9663;48.996;8.334;2023-05-19T03:41:48;13.40;41.60
19060;DHT22;9663;48.996;8.334;2023-05-19T03:44:14;12.90;41.30
19060;DHT22;9663;48.996;8.334;2023-05-19T03:46:39;12.80;41.30
19060;DHT22;9663;48.996;8.334;2023-05-19T03:49:05;12.90;41.50
19060;DHT22;9663;48.996;8.334;2023-05-19T03:51:31;12.80;41.60
19060;DHT22;9663;48.996;8.334;2023-05-19T03:53:59;12.70;41.80
19060;DHT22;9663;48.996;8.334;2023-05-19T03:56:24;12.80;41.60
19060;DHT22;9663;48.996;8.334;2023-05-19T03:58:52;12.80;41.70
19060;DHT22;9663;48.996;8.334;2023-05-19T04:01:19;12.80;42.40
19060;DHT22;9663;48.996;8.334;2023-05-19T04:03:44;12.80;41.70
19060;DHT22;9663;48.996;8.334;2023-05-19T04:06:10;12.80;42.00
19060;DHT22;9663;48.996;8.334;2023-05-19T04:08:38;12.80;41.90
19060;DHT22;9663;48.996;8.334;2023-05-19T04:11:04;12.90;42.00
19060;DHT22;9663;48.996;8.334;2023-05-19T04:13:32;12.80;42.00
19060;DHT22;9663;48.996;8.334;2023-05-19T04:15:58;12.80;42.20
19060;DHT22;9663;48.996;8.334;2023-05-19T04:18:24;12.80;42.10
19060;DHT22;9663;48.996;8.334;2023-05-19T04:20:50;12.80;42.30
19060;DHT22;9663;48.996;8.334;2023-05-19T04:23:16;13.30;42.50
19060;DHT22;9663;48.996;8.334;2023-05-19T04:25:41;12.90;42.40
19060;DHT22;9663;48.996;8.334;2023-05-19T04:28:07;12.90;42.40
19060;DHT22;9663;48.996;8.334;2023-05-19T04:30:33;12.90;42.40
19060;DHT22;9663;48.996;8.334;2023-05-19T04:32:59;12.90;42.50
19060;DHT22;9663;48.996;8.334;2023-05-19T04:35:26;13.00;42.40
19060;DHT22;9663;48.996;8.334;2023-05-19T04:37:51;13.00;42.60
19060;DHT22;9663;48.996;8.334;2023-05-19T04:40:20;13.10;42.60
19060;DHT22;9663;48.996;8.334;2023-05-19T04:42:50;13.00;42.50
19060;DHT22;9663;48.996;8.334;2023-05-19T04:45:17;13.10;42.60
19060;DHT22;9663;48.996;8.334;2023-05-19T04:47:42;13.10;42.60
19060;DHT22;9663;48.996;8.334;2023-05-19T04:50:09;13.20;42.60
19060;DHT22;9663;48.996;8.334;2023-05-19T04:52:35;13.30;42.70
19060;DHT22;9663;48.996;8.334;2023-05-19T04:55:02;13.30;42.80
19060;DHT22;9663;48.996;8.334;2023-05-19T04:57:28;13.40;42.70
19060;DHT22;9663;48.996;8.334;2023-05-19T04:59:54;13.40;42.80
19060;DHT22;9663;48.996;8.334;2023-05-19T05:02:25;13.30;42.60
19060;DHT22;9663;48.996;8.334;2023-05-19T05:04:52;13.50;43.50
19060;DHT22;9663;48.996;8.334;2023-05-19T05:07:19;13.50;42.70
19060;DHT22;9663;48.996;8.334;2023-05-19T05:09:48;12.60;42.40
19060;DHT22;9663;48.996;8.334;2023-05-19T05:12:14;13.70;42.80
19060;DHT22;9663;48.996;8.334;2023-05-19T05:14:42;13.60;42.90
19060;DHT22;9663;48.996;8.334;2023-05-19T05:17:08;14.50;43.20
19060;DHT22;9663;48.996;8.334;2023-05-19T05:19:35;13.90;43.00
19060;DHT22;9663;48.996;8.334;2023-05-19T05:22:01;13.90;42.80
19060;DHT22;9663;48.996;8.334;2023-05-19T05:24:27;13.90;42.80
19060;DHT22;9663;48.996;8.334;2023-05-19T05:26:53;14.00;42.90
19060;DHT22;9663;48.996;8.334;2023-05-19T05:29:19;14.50;43.10
19060;DHT22;9663;48.996;8.334;2023-05-19T05:31:45;13.80;42.70
19060;DHT22;9663;48.996;8.334;2023-05-19T05:34:11;14.10;42.90
19060;DHT22;9663;48.996;8.334;2023-05-19T05:36:37;14.50;42.90
19060;DHT22;9663;48.996;8.334;2023-05-19T05:39:03;14.40;42.80
19060;DHT22;9663;48.996;8.334;2023-05-19T05:41:29;14.50;43.20
19060;DHT22;9663;48.996;8.334;2023-05-19T05:44:00;14.30;42.70
19060;DHT22;9663;48.996;8.334;2023-05-19T05:46:26;14.60;42.80
19060;DHT22;9663;48.996;8.334;2023-05-19T05:48:52;14.70;42.80
19060;DHT22;9663;48.996;8.334;2023-05-19T05:51:21;14.80;42.70
19060;DHT22;9663;48.996;8.334;2023-05-19T05:53:52;14.80;42.90
19060;DHT22;9663;48.996;8.334;2023-05-19T05:56:20;14.90;42.80
19060;DHT22;9663;48.996;8.334;2023-05-19T05:58:46;14.90;42.50
19060;DHT22;9663;48.996;8.334;2023-05-19T06:01:12;13.40;41.50
19060;DHT22;9663;48.996;8.334;2023-05-19T06:03:41;15.00;42.30
19060;DHT22;9663;48.996;8.334;2023-05-19T06:06:10;15.00;42.40
19060;DHT22;9663;48.996;8.334;2023-05-19T06:08:37;15.00;42.30
19060;DHT22;9663;48.996;8.334;2023-05-19T06:11:03;15.00;42.40
19060;DHT22;9663;48.996;8.334;2023-05-19T06:13:35;15.00;42.30
19060;DHT22;9663;48.996;8.334;2023-05-19T06:16:01;15.10;42.40
19060;DHT22;9663;48.996;8.334;2023-05-19T06:18:28;15.10;42.50
19060;DHT22;9663;48.996;8.334;2023-05-19T06:20:54;15.10;42.40
19060;DHT22;9663;48.996;8.334;2023-05-19T06:23:19;15.20;42.30
19060;DHT22;9663;48.996;8.334;2023-05-19T06:25:45;15.20;42.40
19060;DHT22;9663;48.996;8.334;2023-05-19T06:28:11;15.30;42.40
19060;DHT22;9663;48.996;8.334;2023-05-19T06:30:37;15.30;42.30
19060;DHT22;9663;48.996;8.334;2023-05-19T06:33:02;15.40;42.20
19060;DHT22;9663;48.996;8.334;2023-05-19T06:35:29;15.40;42.30
19060;DHT22;9663;48.996;8.334;2023-05-19T06:37:55;15.40;42.30
19060;DHT22;9663;48.996;8.334;2023-05-19T06:40:21;14.10;42.10
19060;DHT22;9663;48.996;8.334;2023-05-19T06:42:47;15.90;42.40
19060;DHT22;9663;48.996;8.334;2023-05-19T06:45:13;15.60;42.20
19060;DHT22;9663;48.996;8.334;2023-05-19T06:47:39;15.60;42.20
19060;DHT22;9663;48.996;8.334;2023-05-19T06:50:08;15.70;42.10
19060;DHT22;9663;48.996;8.334;2023-05-19T06:52:34;15.80;42.30
19060;DHT22;9663;48.996;8.334;2023-05-19T06:55:00;15.90;42.20
19060;DHT22;9663;48.996;8.334;2023-05-19T06:57:26;16.00;42.30
19060;DHT22;9663;48.996;8.334;2023-05-19T06:59:52;16.10;42.20
19060;DHT22;9663;48.996;8.334;2023-05-19T07:02:18;16.20;42.20
19060;DHT22;9663;48.996;8.334;2023-05-19T07:04:43;16.40;42.20
19060;DHT22;9663;48.996;8.334;2023-05-19T07:07:09;16.50;42.20
19060;DHT22;9663;48.996;8.334;2023-05-19T07:09:34;16.60;42.10
19060;DHT22;9663;48.996;8.334;2023-05-19T07:12:00;16.70;42.10
19060;DHT22;9663;48.996;8.334;2023-05-19T07:14:26;16.90;42.00
19060;DHT22;9663;48.996;8.334;2023-05-19T07:16:52;17.00;41.90
19060;DHT22;9663;48.996;8.334;2023-05-19T07:19:18;17.10;41.80
19060;DHT22;9663;48.996;8.334;2023-05-19T07:21:45;17.20;41.80
19060;DHT22;9663;48.996;8.334;2023-05-19T07:24:11;17.30;41.70
19060;DHT22;9663;48.996;8.334;2023-05-19T07:26:37;17.50;41.60
19060;DHT22;9663;48.996;8.334;2023-05-19T07:29:03;17.60;41.50
19060;DHT22;9663;48.996;8.334;2023-05-19T07:31:28;17.90;41.50
19060;DHT22;9663;48.996;8.334;2023-05-19T07:33:55;17.70;41.40
19060;DHT22;9663;48.996;8.334;2023-05-19T07:36:21;17.70;41.40
19060;DHT22;9663;48.996;8.334;2023-05-19T07:38:47;17.80;41.40
19060;DHT22;9663;48.996;8.334;2023-05-19T07:41:13;17.90;41.40
19060;DHT22;9663;48.996;8.334;2023-05-19T07:43:39;18.00;41.40
19060;DHT22;9663;48.996;8.334;2023-05-19T07:46:04;18.10;41.30
19060;DHT22;9663;48.996;8.334;2023-05-19T07:48:30;18.70;41.60
19060;DHT22;9663;48.996;8.334;2023-05-19T07:50:56;19.10;41.70
19060;DHT22;9663;48.996;8.334;2023-05-19T07:53:22;18.30;41.20
19060;DHT22;9663;48.996;8.334;2023-05-19T07:55:48;18.40;41.30
19060;DHT22;9663;48.996;8.334;2023-05-19T07:58:14;18.60;41.30
19060;DHT22;9663;48.996;8.334;2023-05-19T08:00:40;18.70;41.20
19060;DHT22;9663;48.996;8.334;2023-05-19T08:03:09;18.80;41.20
19060;DHT22;9663;48.996;8.334;2023-05-19T08:05:35;18.90;41.00
19060;DHT22;9663;48.996;8.334;2023-05-19T08:08:02;19.00;40.80
19060;DHT22;9663;48.996;8.334;2023-05-19T08:10:28;19.10;40.70
19060;DHT22;9663;48.996;8.334;2023-05-19T08:12:54;19.20;40.50
19060;DHT22;9663;48.996;8.334;2023-05-19T08:15:20;19.20;40.50
19060;DHT22;9663;48.996;8.334;2023-05-19T08:17:46;19.20;40.40
19060;DHT22;9663;48.996;8.334;2023-05-19T08:20:12;19.30;40.60
19060;DHT22;9663;48.996;8.334;2023-05-19T08:22:38;19.40;40.60
19060;DHT22;9663;48.996;8.334;2023-05-19T08:25:04;19.50;40.60
19060;DHT22;9663;48.996;8.334;2023-05-19T08:27:31;19.60;40.50
19060;DHT22;9663;48.996;8.334;2023-05-19T08:29:57;20.30;40.70
19060;DHT22;9663;48.996;8.334;2023-05-19T08:32:23;19.80;41.00
19060;DHT22;9663;48.996;8.334;2023-05-19T08:34:49;19.90;40.30
19060;DHT22;9663;48.996;8.334;2023-05-19T08:37:15;19.50;40.10
19060;DHT22;9663;48.996;8.334;2023-05-19T08:39:41;19.50;40.10
19060;DHT22;9663;48.996;8.334;2023-05-19T08:42:06;20.30;40.30
19060;DHT22;9663;48.996;8.334;2023-05-19T08:44:35;20.40;40.20
19060;DHT22;9663;48.996;8.334;2023-05-19T08:47:03;20.60;40.00
19060;DHT22;9663;48.996;8.334;2023-05-19T08:49:32;20.60;39.70
19060;DHT22;9663;48.996;8.334;2023-05-19T08:55:18;20.80;39.60
19060;DHT22;9663;48.996;8.334;2023-05-19T08:58:07;20.80;39.40
19060;DHT22;9663;48.996;8.334;2023-05-19T09:00:35;20.80;39.20
19060;DHT22;9663;48.996;8.334;2023-05-19T09:03:01;20.70;39.10
19060;DHT22;9663;48.996;8.334;2023-05-19T09:05:28;20.70;39.10
19060;DHT22;9663;48.996;8.334;2023-05-19T09:07:54;20.30;39.00
19060;DHT22;9663;48.996;8.334;2023-05-19T09:10:21;20.70;39.30
19060;DHT22;9663;48.996;8.334;2023-05-19T09:12:47;20.80;39.30
19060;DHT22;9663;48.996;8.334;2023-05-19T09:15:16;20.80;39.20
19060;DHT22;9663;48.996;8.334;2023-05-19T09:17:45;20.90;39.40
19060;DHT22;9663;48.996;8.334;2023-05-19T09:20:13;20.90;39.50
19060;DHT22;9663;48.996;8.334;2023-05-19T09:22:45;21.00;39.60
19060;DHT22;9663;48.996;8.334;2023-05-19T09:25:21;21.20;39.40
19060;DHT22;9663;48.996;8.334;2023-05-19T09:27:48;21.50;39.10
19060;DHT22;9663;48.996;8.334;2023-05-19T09:30:15;21.40;39.80
19060;DHT22;9663;48.996;8.334;2023-05-19T09:32:43;21.50;38.90
19060;DHT22;9663;48.996;8.334;2023-05-19T09:35:10;22.30;39.30
19060;DHT22;9663;48.996;8.334;2023-05-19T09:37:42;21.80;38.90
19060;DHT22;9663;48.996;8.334;2023-05-19T09:40:09;22.10;38.90
19060;DHT22;9663;48.996;8.334;2023-05-19T09:42:39;22.30;38.70
19060;DHT22;9663;48.996;8.334;2023-05-19T09:45:07;22.50;38.20
19060;DHT22;9663;48.996;8.334;2023-05-19T09:47:37;22.70;38.00
19060;DHT22;9663;48.996;8.334;2023-05-19T09:50:10;22.70;37.40
19060;DHT22;9663;48.996;8.334;2023-05-19T09:52:37;22.70;37.20
19060;DHT22;9663;48.996;8.334;2023-05-19T09:55:04;22.70;37.30
19060;DHT22;9663;48.996;8.334;2023-05-19T09:57:34;22.70;37.30
19060;DHT22;9663;48.996;8.334;2023-05-19T10:00:05;22.70;37.10
19060;DHT22;9663;48.996;8.334;2023-05-19T10:02:46;22.80;37.00
19060;DHT22;9663;48.996;8.334;2023-05-19T10:05:16;22.80;37.10
19060;DHT22;9663;48.996;8.334;2023-05-19T10:07:54;22.80;36.80
19060;DHT22;9663;48.996;8.334;2023-05-19T10:10:20;22.90;36.60
19060;DHT22;9663;48.996;8.334;2023-05-19T10:12:48;23.00;36.90
19060;DHT22;9663;48.996;8.334;2023-05-19T10:15:17;23.00;36.60
19060;DHT22;9663;48.996;8.334;2023-05-19T10:17:43;23.10;36.50
19060;DHT22;9663;48.996;8.334;2023-05-19T10:20:15;23.20;36.60
19060;DHT22;9663;48.996;8.334;2023-05-19T10:22:43;23.20;36.40
19060;DHT22;9663;48.996;8.334;2023-05-19T10:25:11;23.30;36.60
19060;DHT22;9663;48.996;8.334;2023-05-19T10:27:57;23.30;36.40
19060;DHT22;9663;48.996;8.334;2023-05-19T10:30:35;23.50;36.30
19060;DHT22;9663;48.996;8.334;2023-05-19T10:33:06;23.70;36.40
19060;DHT22;9663;48.996;8.334;2023-05-19T10:38:47;24.20;36.30
19060;DHT22;9663;48.996;8.334;2023-05-19T10:45:12;24.80;35.70
19060;DHT22;9663;48.996;8.334;2023-05-19T10:47:13;25.10;35.30
19060;DHT22;9663;48.996;8.334;2023-05-19T10:49:38;25.30;35.20
19060;DHT22;9663;48.996;8.334;2023-05-19T10:52:18;25.40;35.00
19060;DHT22;9663;48.996;8.334;2023-05-19T10:54:46;25.50;34.10
19060;DHT22;9663;48.996;8.334;2023-05-19T10:57:15;25.50;34.20
19060;DHT22;9663;48.996;8.334;2023-05-19T10:59:42;25.50;34.10
19060;DHT22;9663;48.996;8.334;2023-05-19T11:02:09;25.50;34.40
19060;DHT22;9663;48.996;8.334;2023-05-19T11:04:46;25.50;34.40
19060;DHT22;9663;48.996;8.334;2023-05-19T11:07:19;25.50;33.90
19060;DHT22;9663;48.996;8.334;2023-05-19T11:09:52;25.50;34.00
19060;DHT22;9663;48.996;8.334;2023-05-19T11:12:20;25.50;33.90
19060;DHT22;9663;48.996;8.334;2023-05-19T11:14:53;25.40;33.90
19060;DHT22;9663;48.996;8.334;2023-05-19T11:17:20;25.40;33.80
19060;DHT22;9663;48.996;8.334;2023-05-19T11:19:56;25.40;33.90
19060;DHT22;9663;48.996;8.334;2023-05-19T11:22:25;25.30;33.70
19060;DHT22;9663;48.996;8.334;2023-05-19T11:24:53;25.20;34.00
19060;DHT22;9663;48.996;8.334;2023-05-19T11:30:09;25.20;33.70
19060;DHT22;9663;48.996;8.334;2023-05-19T11:32:39;25.30;33.90
19060;DHT22;9663;48.996;8.334;2023-05-19T11:35:07;25.30;34.20
19060;DHT22;9663;48.996;8.334;2023-05-19T11:37:34;25.40;34.10
19060;DHT22;9663;48.996;8.334;2023-05-19T11:40:02;25.50;34.10
19060;DHT22;9663;48.996;8.334;2023-05-19T11:42:35;25.70;34.00
19060;DHT22;9663;48.996;8.334;2023-05-19T11:45:02;25.80;33.90
19060;DHT22;9663;48.996;8.334;2023-05-19T11:47:30;25.90;34.00
19060;DHT22;9663;48.996;8.334;2023-05-19T11:49:57;26.10;33.90
19060;DHT22;9663;48.996;8.334;2023-05-19T11:52:25;26.20;34.10
19060;DHT22;9663;48.996;8.334;2023-05-19T11:54:53;26.40;33.90
19060;DHT22;9663;48.996;8.334;2023-05-19T11:57:21;26.60;33.90
19060;DHT22;9663;48.996;8.334;2023-05-19T11:59:46;26.80;33.60
19060;DHT22;9663;48.996;8.334;2023-05-19T12:02:20;26.90;33.30
19060;DHT22;9663;48.996;8.334;2023-05-19T12:04:49;26.90;33.00
19060;DHT22;9663;48.996;8.334;2023-05-19T12:07:21;26.80;32.70
19060;DHT22;9663;48.996;8.334;2023-05-19T12:09:51;26.70;32.50
19060;DHT22;9663;48.996;8.334;2023-05-19T12:12:19;26.60;32.20
19060;DHT22;9663;48.996;8.334;2023-05-19T12:14:45;26.30;32.10
19060;DHT22;9663;48.996;8.334;2023-05-19T12:17:14;26.10;32.20
19060;DHT22;9663;48.996;8.334;2023-05-19T12:19:47;25.80;32.10
19060;DHT22;9663;48.996;8.334;2023-05-19T12:22:15;25.50;32.30
19060;DHT22;9663;48.996;8.334;2023-05-19T12:24:42;25.20;32.50
19060;DHT22;9663;48.996;8.334;2023-05-19T12:27:19;25.10;32.70
19060;DHT22;9663;48.996;8.334;2023-05-19T12:29:55;24.80;32.80
19060;DHT22;9663;48.996;8.334;2023-05-19T12:32:25;24.80;33.40
19060;DHT22;9663;48.996;8.334;2023-05-19T12:34:54;24.80;33.70
19060;DHT22;9663;48.996;8.334;2023-05-19T12:37:21;24.80;33.70
19060;DHT22;9663;48.996;8.334;2023-05-19T12:39:50;24.70;33.50
19060;DHT22;9663;48.996;8.334;2023-05-19T12:42:16;24.70;33.50
19060;DHT22;9663;48.996;8.334;2023-05-19T12:44:46;24.70;33.60
19060;DHT22;9663;48.996;8.334;2023-05-19T12:47:15;24.50;33.50
19060;DHT22;9663;48.996;8.334;2023-05-19T12:52:26;24.30;33.30
19060;DHT22;9663;48.996;8.334;2023-05-19T12:55:03;24.20;33.50
19060;DHT22;9663;48.996;8.334;2023-05-19T12:57:34;24.00;33.60
19060;DHT22;9663;48.996;8.334;2023-05-19T13:00:06;23.90;33.80
19060;DHT22;9663;48.996;8.334;2023-05-19T13:03:17;23.70;33.90
19060;DHT22;9663;48.996;8.334;2023-05-19T13:05:46;23.60;34.10
19060;DHT22;9663;48.996;8.334;2023-05-19T13:08:15;23.60;34.30
19060;DHT22;9663;48.996;8.334;2023-05-19T13:10:43;23.60;34.60
19060;DHT22;9663;48.996;8.334;2023-05-19T13:13:11;23.70;34.60
19060;DHT22;9663;48.996;8.334;2023-05-19T13:15:40;23.70;34.60
19060;DHT22;9663;48.996;8.334;2023-05-19T13:18:08;23.80;34.50
19060;DHT22;9663;48.996;8.334;2023-05-19T13:20:37;23.90;34.50
19060;DHT22;9663;48.996;8.334;2023-05-19T13:23:04;24.10;34.70
19060;DHT22;9663;48.996;8.334;2023-05-19T13:25:31;24.20;34.50
19060;DHT22;9663;48.996;8.334;2023-05-19T13:27:58;24.30;34.80
19060;DHT22;9663;48.996;8.334;2023-05-19T13:30:26;24.40;34.70
19060;DHT22;9663;48.996;8.334;2023-05-19T13:32:53;24.60;34.50
19060;DHT22;9663;48.996;8.334;2023-05-19T13:35:19;24.80;34.50
19060;DHT22;9663;48.996;8.334;2023-05-19T13:37:44;24.90;34.30
19060;DHT22;9663;48.996;8.334;2023-05-19T13:40:11;25.10;34.50
19060;DHT22;9663;48.996;8.334;2023-05-19T13:42:37;25.40;34.50
19060;DHT22;9663;48.996;8.334;2023-05-19T13:45:04;25.70;34.30
19060;DHT22;9663;48.996;8.334;2023-05-19T13:47:30;25.80;34.10
19060;DHT22;9663;48.996;8.334;2023-05-19T13:49:55;26.20;34.20
19060;DHT22;9663;48.996;8.334;2023-05-19T13:52:22;26.40;34.10
19060;DHT22;9663;48.996;8.334;2023-05-19T13:54:48;26.70;33.90
19060;DHT22;9663;48.996;8.334;2023-05-19T13:57:15;26.70;33.40
19060;DHT22;9663;48.996;8.334;2023-05-19T13:59:40;26.80;33.20
19060;DHT22;9663;48.996;8.334;2023-05-19T14:02:07;26.80;32.80
19060;DHT22;9663;48.996;8.334;2023-05-19T14:04:36;26.70;32.70
19060;DHT22;9663;48.996;8.334;2023-05-19T14:07:05;26.50;32.50
19060;DHT22;9663;48.996;8.334;2023-05-19T14:09:31;26.40;32.60
19060;DHT22;9663;48.996;8.334;2023-05-19T14:11:58;26.20;32.60
19060;DHT22;9663;48.996;8.334;2023-05-19T14:14:24;26.10;32.60
19060;DHT22;9663;48.996;8.334;2023-05-19T14:16:49;25.90;32.60
19060;DHT22;9663;48.996;8.334;2023-05-19T14:19:15;25.80;32.80
19060;DHT22;9663;48.996;8.334;2023-05-19T14:21:41;25.80;32.90
19060;DHT22;9663;48.996;8.334;2023-05-19T14:24:07;25.90;33.00
19060;DHT22;9663;48.996;8.334;2023-05-19T14:26:32;25.80;32.70
19060;DHT22;9663;48.996;8.334;2023-05-19T14:28:58;25.80;32.80
19060;DHT22;9663;48.996;8.334;2023-05-19T14:31:24;25.60;32.60
19060;DHT22;9663;48.996;8.334;2023-05-19T14:33:50;25.60;32.80
19060;DHT22;9663;48.996;8.334;2023-05-19T14:36:16;25.40;32.80
19060;DHT22;9663;48.996;8.334;2023-05-19T14:38:41;25.60;33.00
19060;DHT22;9663;48.996;8.334;2023-05-19T14:41:07;25.60;33.00
19060;DHT22;9663;48.996;8.334;2023-05-19T14:43:33;25.60;33.10
19060;DHT22;9663;48.996;8.334;2023-05-19T14:45:59;25.60;33.00
19060;DHT22;9663;48.996;8.334;2023-05-19T14:48:24;25.50;32.70
19060;DHT22;9663;48.996;8.334;2023-05-19T14:50:51;25.40;32.50
19060;DHT22;9663;48.996;8.334;2023-05-19T14:53:16;25.30;32.50
19060;DHT22;9663;48.996;8.334;2023-05-19T14:55:42;25.10;32.60
19060;DHT22;9663;48.996;8.334;2023-05-19T14:58:08;25.00;32.70
19060;DHT22;9663;48.996;8.334;2023-05-19T15:00:34;24.80;32.80
19060;DHT22;9663;48.996;8.334;2023-05-19T15:03:00;24.70;33.60
19060;DHT22;9663;48.996;8.334;2023-05-19T15:05:25;24.60;33.10
19060;DHT22;9663;48.996;8.334;2023-05-19T15:07:51;24.50;33.20
19060;DHT22;9663;48.996;8.334;2023-05-19T15:10:17;24.40;33.30
19060;DHT22;9663;48.996;8.334;2023-05-19T15:12:46;24.40;33.50
19060;DHT22;9663;48.996;8.334;2023-05-19T15:15:12;24.40;33.40
19060;DHT22;9663;48.996;8.334;2023-05-19T15:17:38;24.30;33.50
19060;DHT22;9663;48.996;8.334;2023-05-19T15:20:04;25.40;34.10
19060;DHT22;9663;48.996;8.334;2023-05-19T15:22:31;24.60;33.80
19060;DHT22;9663;48.996;8.334;2023-05-19T15:24:56;24.80;34.00
19060;DHT22;9663;48.996;8.334;2023-05-19T15:27:22;25.00;34.10
19060;DHT22;9663;48.996;8.334;2023-05-19T15:29:48;25.30;33.90
19060;DHT22;9663;48.996;8.334;2023-05-19T15:32:13;25.50;33.60
19060;DHT22;9663;48.996;8.334;2023-05-19T15:34:39;25.50;33.00
19060;DHT22;9663;48.996;8.334;2023-05-19T15:37:05;25.50;32.80
19060;DHT22;9663;48.996;8.334;2023-05-19T15:39:30;25.40;32.70
19060;DHT22;9663;48.996;8.334;2023-05-19T15:41:57;25.30;32.50
19060;DHT22;9663;48.996;8.334;2023-05-19T15:44:23;25.00;32.40
19060;DHT22;9663;48.996;8.334;2023-05-19T15:46:49;24.90;32.40
19060;DHT22;9663;48.996;8.334;2023-05-19T15:49:15;24.60;32.50
19060;DHT22;9663;48.996;8.334;2023-05-19T15:51:42;24.30;32.50
19060;DHT22;9663;48.996;8.334;2023-05-19T15:54:09;24.00;32.80
19060;DHT22;9663;48.996;8.334;2023-05-19T15:56:35;23.70;32.90
19060;DHT22;9663;48.996;8.334;2023-05-19T15:59:00;23.50;33.20
19060;DHT22;9663;48.996;8.334;2023-05-19T16:01:26;23.30;33.50
19060;DHT22;9663;48.996;8.334;2023-05-19T16:03:52;23.20;33.60
19060;DHT22;9663;48.996;8.334;2023-05-19T16:06:18;23.00;34.50
19060;DHT22;9663;48.996;8.334;2023-05-19T16:08:43;22.90;33.90
19060;DHT22;9663;48.996;8.334;2023-05-19T16:11:09;22.90;34.20
19060;DHT22;9663;48.996;8.334;2023-05-19T16:13:35;22.90;34.40
19060;DHT22;9663;48.996;8.334;2023-05-19T16:16:00;22.90;34.50